Time;durP1;ratioP1;P1;durP2;ratioP2;P2;SDS_P1;SDS_P2;PMS_P1;PMS_P2;Temp;Humidity;BMP_temperature;BMP_pressure;BME280_temperature;BME280_humidity;BME280_pressure;Samples;Min_cycle;Max_cycle;Signal;HPM_P1;HPM_P2
2023/08/14 00:00:47;;;;;;;11.77;4.60;;;;;16.40;101110.00;;;;5012616;28;20225;-66
2023/08/14 00:03:34;;;;;;;6.93;4.20;;;;;16.30;101099.00;;;;5034642;28;20252;-65
2023/08/14 00:06:20;;;;;;;7.40;4.17;;;;;16.30;101100.00;;;;5031827;28;20279;-65
2023/08/14 00:09:07;;;;;;;6.10;3.87;;;;;16.20;101101.00;;;;5038841;28;20729;-65
2023/08/14 00:11:53;;;;;;;6.40;3.90;;;;;16.20;101108.00;;;;5024709;28;20632;-65
2023/08/14 00:14:41;;;;;;;7.73;4.30;;;;;16.20;101106.00;;;;5015334;28;20821;-65
2023/08/14 00:17:28;;;;;;;7.97;4.20;;;;;16.20;101118.00;;;;5017634;28;20244;-67
2023/08/14 00:20:14;;;;;;;7.93;4.07;;;;;16.20;101113.00;;;;5024488;28;20278;-66
2023/08/14 00:23:01;;;;;;;5.57;3.90;;;;;16.10;101103.00;;;;5023553;28;20251;-66
2023/08/14 00:25:47;;;;;;;5.90;3.93;;;;;16.00;101105.00;;;;5023353;28;20595;-65
2023/08/14 00:28:34;;;;;;;8.00;4.40;;;;;16.00;101099.00;;;;5036098;28;20228;-65
2023/08/14 00:31:22;;;;;;;13.40;4.70;;;;;16.00;101102.00;;;;5043530;28;20236;-65
2023/08/14 00:34:08;;;;;;;5.50;4.20;;;;;16.00;101105.00;;;;5026646;28;20221;-65
2023/08/14 00:36:54;;;;;;;8.47;4.03;;;;;16.00;101108.00;;;;5022801;28;20615;-66
2023/08/14 00:39:41;;;;;;;5.40;4.00;;;;;16.00;101093.00;;;;5011999;28;20229;-63
2023/08/14 00:42:28;;;;;;;7.80;4.13;;;;;16.00;101106.00;;;;5022585;28;20891;-65
2023/08/14 00:45:14;;;;;;;7.67;4.30;;;;;15.90;101095.00;;;;5015931;28;20244;-67
2023/08/14 00:48:05;;;;;;;8.37;4.27;;;;;15.90;101099.00;;;;5016477;28;20270;-66
2023/08/14 00:50:53;;;;;;;9.23;3.70;;;;;15.90;101102.00;;;;5015098;28;21024;-66
2023/08/14 00:53:40;;;;;;;8.70;4.07;;;;;15.90;101105.00;;;;5023781;28;20235;-66
2023/08/14 00:56:29;;;;;;;8.57;4.57;;;;;15.80;101093.00;;;;5029472;28;20248;-66
2023/08/14 00:59:15;;;;;;;8.83;4.33;;;;;15.80;101095.00;;;;5023962;28;20260;-66
2023/08/14 01:02:02;;;;;;;6.50;4.00;;;;;15.80;101091.00;;;;5023100;28;20287;-65
2023/08/14 01:04:50;;;;;;;8.37;4.23;;;;;15.80;101093.00;;;;5024470;28;20228;-65
2023/08/14 01:07:37;;;;;;;5.57;4.00;;;;;15.80;101087.00;;;;5033147;28;20777;-66
2023/08/14 01:10:30;;;;;;;8.83;4.33;;;;;15.70;101094.00;;;;5023786;28;20232;-65
2023/08/14 01:13:24;;;;;;;5.50;4.03;;;;;15.70;101095.00;;;;5036536;28;20352;-66
2023/08/14 01:16:16;;;;;;;5.90;4.37;;;;;15.70;101099.00;;;;5027823;28;20314;-65
2023/08/14 01:19:09;;;;;;;8.83;4.23;;;;;15.70;101085.00;;;;5043192;28;20273;-64
2023/08/14 01:22:04;;;;;;;5.80;4.20;;;;;15.60;101095.00;;;;5039548;28;20231;-64
2023/08/14 01:24:56;;;;;;;8.77;4.10;;;;;15.60;101091.00;;;;5040174;28;20257;-65
2023/08/14 01:27:44;;;;;;;9.73;4.43;;;;;15.60;101093.00;;;;5043519;28;20223;-66
2023/08/14 01:30:32;;;;;;;6.57;4.10;;;;;15.60;101086.00;;;;5040402;28;20228;-65
2023/08/14 01:33:19;;;;;;;7.30;4.03;;;;;15.60;101088.00;;;;5041435;28;20255;-66
2023/08/14 01:36:14;;;;;;;6.17;4.53;;;;;15.60;101085.00;;;;5041009;28;20239;-65
2023/08/14 01:39:06;;;;;;;7.73;4.60;;;;;15.60;101075.00;;;;5041396;28;20227;-65
2023/08/14 01:42:00;;;;;;;9.60;4.47;;;;;15.60;101074.00;;;;5044328;28;20272;-64
2023/08/14 01:44:50;;;;;;;7.77;4.57;;;;;15.50;101076.00;;;;5038801;28;20234;-66
2023/08/14 01:47:39;;;;;;;6.13;4.13;;;;;15.40;101068.00;;;;5045888;28;20225;-65
2023/08/14 01:50:28;;;;;;;6.93;4.23;;;;;15.40;101063.00;;;;5045821;28;20595;-65
2023/08/14 01:53:17;;;;;;;8.83;4.50;;;;;15.40;101066.00;;;;5044846;28;20307;-65
2023/08/14 01:56:04;;;;;;;8.57;4.70;;;;;15.40;101065.00;;;;5040728;28;20370;-65
2023/08/14 01:58:51;;;;;;;6.80;4.30;;;;;15.40;101055.00;;;;5044508;28;20260;-64
2023/08/14 02:01:38;;;;;;;11.23;4.57;;;;;15.30;101056.00;;;;5041579;28;20246;-65
2023/08/14 02:04:25;;;;;;;8.10;5.00;;;;;15.30;101057.00;;;;5028221;28;20239;-65
2023/08/14 02:07:11;;;;;;;9.60;4.80;;;;;15.30;101053.00;;;;5019547;28;20298;-65
2023/08/14 02:09:58;;;;;;;8.00;4.70;;;;;15.30;101051.00;;;;5014385;28;20234;-65
2023/08/14 02:12:44;;;;;;;10.40;4.80;;;;;15.30;101052.00;;;;5023205;28;20282;-65
2023/08/14 02:15:31;;;;;;;6.13;4.20;;;;;15.30;101041.00;;;;5024628;28;20310;-65
2023/08/14 02:18:19;;;;;;;9.63;4.43;;;;;15.30;101045.00;;;;5024954;28;20835;-65
2023/08/14 02:21:05;;;;;;;8.63;5.07;;;;;15.20;101035.00;;;;5022343;28;20233;-65
2023/08/14 02:23:52;;;;;;;9.40;4.67;;;;;15.20;101034.00;;;;5024139;28;20228;-64
2023/08/14 02:26:38;;;;;;;9.80;4.57;;;;;15.20;101024.00;;;;5023867;28;20352;-65
2023/08/14 02:29:25;;;;;;;9.57;4.93;;;;;15.10;101017.00;;;;5016456;28;20236;-65
2023/08/14 02:32:12;;;;;;;7.03;4.70;;;;;15.00;101034.00;;;;5023691;28;20292;-66
2023/08/14 02:35:00;;;;;;;9.27;5.10;;;;;15.00;101027.00;;;;5020965;28;20234;-64
2023/08/14 02:37:46;;;;;;;9.40;5.53;;;;;15.00;101023.00;;;;5023760;28;20238;-65
2023/08/14 02:40:33;;;;;;;10.33;4.80;;;;;15.10;101017.00;;;;5029287;28;20738;-65
2023/08/14 02:43:19;;;;;;;9.13;4.70;;;;;15.10;101019.00;;;;5026539;28;20748;-63
2023/08/14 02:46:06;;;;;;;6.93;4.90;;;;;15.10;101012.00;;;;5022602;28;20329;-65
2023/08/14 02:48:53;;;;;;;7.23;4.57;;;;;15.10;101008.00;;;;5020623;28;20257;-64
2023/08/14 02:51:40;;;;;;;7.63;5.03;;;;;15.10;101005.00;;;;5025751;28;20261;-66
2023/08/14 02:54:27;;;;;;;6.90;4.80;;;;;15.00;101007.00;;;;5022859;28;20236;-65
2023/08/14 02:57:14;;;;;;;12.17;5.10;;;;;15.00;101023.00;;;;5012181;28;20298;-65
2023/08/14 03:00:00;;;;;;;6.33;4.73;;;;;15.00;101008.00;;;;5022099;28;20233;-66
2023/08/14 03:02:47;;;;;;;8.83;4.77;;;;;15.00;101012.00;;;;5022725;28;20612;-65
2023/08/14 03:05:34;;;;;;;6.53;4.67;;;;;15.00;101009.00;;;;5020486;28;20240;-65
2023/08/14 03:08:22;;;;;;;6.50;4.83;;;;;15.00;101010.00;;;;5024947;28;20230;-65
2023/08/14 03:11:08;;;;;;;9.20;4.67;;;;;14.90;101012.00;;;;5015749;28;20727;-65
2023/08/14 03:13:55;;;;;;;7.50;4.70;;;;;14.90;101011.00;;;;5011866;28;20239;-65
2023/08/14 03:16:41;;;;;;;6.80;4.90;;;;;14.90;101014.00;;;;5023550;28;20726;-65
2023/08/14 03:19:28;;;;;;;9.50;4.60;;;;;14.90;101017.00;;;;5013562;28;20368;-65
2023/08/14 03:22:14;;;;;;;9.63;4.63;;;;;14.90;101004.00;;;;5021308;28;20317;-65
2023/08/14 03:25:02;;;;;;;7.20;4.53;;;;;14.90;101016.00;;;;5014330;28;20244;-65
2023/08/14 03:27:48;;;;;;;7.50;5.00;;;;;14.90;101013.00;;;;5023791;28;20230;-65
2023/08/14 03:30:41;;;;;;;7.07;4.70;;;;;14.90;101010.00;;;;5023324;28;20787;-65
2023/08/14 03:33:28;;;;;;;6.57;4.50;;;;;14.90;101013.00;;;;5032931;28;20232;-65
2023/08/14 03:36:15;;;;;;;8.77;4.87;;;;;14.80;101006.00;;;;5031675;28;20868;-65
2023/08/14 03:39:01;;;;;;;8.00;4.97;;;;;14.80;101010.00;;;;5034777;28;20388;-66
2023/08/14 03:41:49;;;;;;;5.53;4.33;;;;;14.80;100999.00;;;;5018783;28;20227;-65
2023/08/14 03:44:35;;;;;;;7.30;4.77;;;;;14.70;101005.00;;;;5021470;28;20601;-66
2023/08/14 03:47:22;;;;;;;6.37;4.47;;;;;14.70;100997.00;;;;5020326;28;20310;-65
2023/08/14 03:50:09;;;;;;;9.27;4.80;;;;;14.70;101014.00;;;;5031381;28;20235;-66
2023/08/14 03:52:56;;;;;;;7.37;4.80;;;;;14.70;101011.00;;;;5019315;28;20633;-65
2023/08/14 03:55:42;;;;;;;7.90;5.17;;;;;14.80;101007.00;;;;5016348;28;20246;-66
2023/08/14 03:58:30;;;;;;;4.80;4.30;;;;;14.70;101014.00;;;;5019598;28;20577;-65
2023/08/14 04:01:16;;;;;;;9.07;4.67;;;;;14.70;101011.00;;;;5028279;28;20229;-64
2023/08/14 04:04:03;;;;;;;9.50;4.63;;;;;14.70;101014.00;;;;5030814;28;20238;-66
2023/08/14 04:06:50;;;;;;;10.07;4.90;;;;;14.70;101019.00;;;;5035696;28;20245;-66
2023/08/14 04:09:36;;;;;;;8.10;4.90;;;;;14.60;101018.00;;;;5036948;28;20804;-66
2023/08/14 04:12:22;;;;;;;5.23;4.60;;;;;14.60;101013.00;;;;5035125;28;20245;-64
2023/08/14 04:15:14;;;;;;;6.00;4.77;;;;;14.60;101020.00;;;;5031548;28;20233;-63
2023/08/14 04:18:00;;;;;;;8.27;5.23;;;;;14.60;101017.00;;;;5020220;28;20232;-66
2023/08/14 04:20:47;;;;;;;9.83;5.20;;;;;14.60;101017.00;;;;5019968;28;20257;-65
2023/08/14 04:23:35;;;;;;;8.03;4.90;;;;;14.60;101016.00;;;;5020292;28;20226;-65
2023/08/14 04:26:22;;;;;;;6.10;4.67;;;;;14.60;101015.00;;;;5030508;28;20254;-65
2023/08/14 04:29:10;;;;;;;7.77;5.37;;;;;14.70;101011.00;;;;5026979;28;20833;-65
2023/08/14 04:31:58;;;;;;;7.60;5.03;;;;;14.70;101004.00;;;;5019316;28;20740;-65
2023/08/14 04:34:45;;;;;;;9.40;5.63;;;;;14.70;101000.00;;;;5023678;28;20236;-64
2023/08/14 04:37:31;;;;;;;13.60;5.53;;;;;14.70;100999.00;;;;5029095;28;20235;-66
2023/08/14 04:40:18;;;;;;;8.07;5.10;;;;;14.70;100993.00;;;;5025252;28;20731;-65
2023/08/14 04:43:05;;;;;;;6.70;4.70;;;;;14.70;100994.00;;;;5020341;28;20236;-65
2023/08/14 04:45:51;;;;;;;6.93;5.33;;;;;14.70;100991.00;;;;5029515;28;20658;-65
2023/08/14 04:48:39;;;;;;;9.47;4.80;;;;;14.70;100975.00;;;;5026293;28;20707;-64
2023/08/14 04:51:27;;;;;;;7.73;5.33;;;;;14.80;100990.00;;;;5040691;28;20272;-64
2023/08/14 04:54:13;;;;;;;9.57;5.40;;;;;14.80;100988.00;;;;5024982;28;20233;-65
2023/08/14 04:57:00;;;;;;;10.77;5.87;;;;;14.80;101001.00;;;;5015782;28;20241;-65
2023/08/14 04:59:46;;;;;;;12.90;5.30;;;;;14.90;101005.00;;;;5028064;28;20361;-65
2023/08/14 05:02:33;;;;;;;7.80;5.33;;;;;15.00;101000.00;;;;5033568;28;20229;-65
2023/08/14 05:05:20;;;;;;;8.50;5.27;;;;;15.00;100995.00;;;;5050146;28;20272;-65
2023/08/14 05:08:07;;;;;;;8.37;5.57;;;;;15.00;100996.00;;;;5019494;28;20248;-65
2023/08/14 05:10:56;;;;;;;8.53;4.93;;;;;15.10;100991.00;;;;5023600;28;20229;-66
2023/08/14 05:13:44;;;;;;;8.47;5.40;;;;;15.10;100980.00;;;;5022415;28;20600;-64
2023/08/14 05:16:31;;;;;;;7.63;5.20;;;;;15.10;100983.00;;;;5015473;28;20424;-67
2023/08/14 05:19:17;;;;;;;7.63;5.23;;;;;15.20;100977.00;;;;5030841;28;20249;-65
2023/08/14 05:22:05;;;;;;;8.13;5.03;;;;;15.30;100985.00;;;;5027439;28;20323;-65
2023/08/14 05:24:51;;;;;;;8.83;5.63;;;;;15.40;100999.00;;;;5023617;28;20275;-64
2023/08/14 05:27:38;;;;;;;9.47;4.80;;;;;15.50;101002.00;;;;5019478;28;20338;-65
2023/08/14 05:30:25;;;;;;;8.00;4.90;;;;;15.50;101005.00;;;;5017764;28;20233;-65
2023/08/14 05:33:12;;;;;;;7.37;5.17;;;;;15.60;100998.00;;;;5019392;28;20228;-65
2023/08/14 05:35:58;;;;;;;5.10;4.60;;;;;15.70;100990.00;;;;5010955;28;20233;-65
2023/08/14 05:38:46;;;;;;;8.63;5.07;;;;;15.70;100994.00;;;;5023512;28;20630;-65
2023/08/14 05:41:32;;;;;;;7.63;4.90;;;;;15.80;100989.00;;;;5027980;28;20229;-64
2023/08/14 05:44:19;;;;;;;8.00;5.40;;;;;15.90;100985.00;;;;5024146;28;20236;-65
2023/08/14 05:47:05;;;;;;;7.20;5.37;;;;;16.00;100994.00;;;;5025596;28;20818;-65
2023/08/14 05:49:52;;;;;;;6.50;4.90;;;;;16.10;100997.00;;;;5025390;28;20326;-63
2023/08/14 05:52:38;;;;;;;11.87;4.90;;;;;16.20;100991.00;;;;5025039;28;20652;-64
2023/08/14 05:55:27;;;;;;;8.20;4.83;;;;;16.20;100990.00;;;;5025999;28;20252;-65
2023/08/14 05:58:14;;;;;;;7.47;5.30;;;;;16.30;100995.00;;;;5026067;28;20610;-65
2023/08/14 06:01:00;;;;;;;7.87;5.37;;;;;16.50;101002.00;;;;5016623;28;20661;-65
2023/08/14 06:03:47;;;;;;;9.73;5.73;;;;;16.60;100993.00;;;;5025552;28;20769;-65
2023/08/14 06:06:34;;;;;;;6.93;5.50;;;;;16.70;100990.00;;;;5022440;28;20260;-65
2023/08/14 06:09:20;;;;;;;12.93;6.30;;;;;16.80;100989.00;;;;5029998;28;20385;-64
2023/08/14 06:12:09;;;;;;;9.20;6.27;;;;;16.90;100990.00;;;;5022531;28;20220;-65
2023/08/14 06:14:55;;;;;;;10.37;6.73;;;;;17.00;100989.00;;;;5022527;28;20287;-66
2023/08/14 06:17:43;;;;;;;7.20;6.17;;;;;17.10;100990.00;;;;5040245;28;20237;-65
2023/08/14 06:20:30;;;;;;;10.33;6.33;;;;;17.20;100992.00;;;;5046047;28;20247;-65
2023/08/14 06:23:16;;;;;;;9.73;6.07;;;;;17.40;100993.00;;;;5020858;28;20230;-65
2023/08/14 06:26:03;;;;;;;10.10;5.77;;;;;17.50;100985.00;;;;5031245;28;20348;-65
2023/08/14 06:28:51;;;;;;;9.27;5.93;;;;;17.60;100987.00;;;;5027909;28;20287;-65
2023/08/14 06:31:37;;;;;;;13.97;6.10;;;;;17.80;100989.00;;;;5031084;28;20291;-65
2023/08/14 06:34:24;;;;;;;8.90;6.47;;;;;17.90;100989.00;;;;5025196;28;20284;-66
2023/08/14 06:37:10;;;;;;;16.80;7.33;;;;;18.00;100989.00;;;;5037241;28;20738;-65
2023/08/14 06:39:57;;;;;;;8.90;7.13;;;;;18.10;100994.00;;;;5024588;28;20236;-66
2023/08/14 06:42:43;;;;;;;11.83;5.90;;;;;18.30;101004.00;;;;5029332;28;20234;-65
2023/08/14 06:45:31;;;;;;;9.47;6.30;;;;;18.40;101006.00;;;;5024941;28;20741;-64
2023/08/14 06:48:18;;;;;;;10.53;6.40;;;;;18.50;101015.00;;;;5025794;28;20741;-66
2023/08/14 06:51:04;;;;;;;12.83;6.83;;;;;18.60;101006.00;;;;5018841;28;20777;-66
2023/08/14 06:53:51;;;;;;;10.83;6.40;;;;;18.70;101007.00;;;;5023720;28;20232;-66
2023/08/14 06:56:40;;;;;;;15.47;6.73;;;;;18.80;101014.00;;;;5021209;28;21006;-66
2023/08/14 06:59:27;;;;;;;11.67;6.03;;;;;18.90;101016.00;;;;5024349;28;20240;-67
2023/08/14 07:02:15;;;;;;;11.27;6.30;;;;;19.00;101015.00;;;;5028032;28;20240;-66
2023/08/14 07:05:05;;;;;;;9.03;6.83;;;;;19.00;101013.00;;;;5032529;28;20237;-66
2023/08/14 07:07:53;;;;;;;10.63;6.17;;;;;19.10;101013.00;;;;5018857;28;20249;-66
2023/08/14 07:10:40;;;;;;;10.10;6.30;;;;;19.20;101004.00;;;;5020408;28;20808;-66
2023/08/14 07:13:27;;;;;;;14.10;6.43;;;;;19.20;101005.00;;;;5035980;28;20238;-66
2023/08/14 07:16:14;;;;;;;11.03;6.57;;;;;19.30;101011.00;;;;5033004;28;20295;-66
2023/08/14 07:19:01;;;;;;;8.13;5.93;;;;;19.30;101005.00;;;;5024540;28;20293;-65
2023/08/14 07:21:48;;;;;;;12.27;6.47;;;;;19.40;101004.00;;;;5022319;28;20346;-66
2023/08/14 07:24:34;;;;;;;10.77;5.80;;;;;19.50;100997.00;;;;5021211;28;20551;-66
2023/08/14 07:27:20;;;;;;;13.13;7.07;;;;;19.50;101003.00;;;;5018853;28;20239;-65
2023/08/14 07:30:10;;;;;;;11.73;6.43;;;;;19.50;101007.00;;;;5017577;28;20374;-65
2023/08/14 07:32:57;;;;;;;10.60;6.10;;;;;19.50;101001.00;;;;5040399;28;20237;-65
2023/08/14 07:35:45;;;;;;;11.13;6.30;;;;;19.60;101010.00;;;;5041423;28;20380;-65
2023/08/14 07:38:31;;;;;;;10.83;5.10;;;;;19.60;101023.00;;;;5023612;28;20805;-66
2023/08/14 07:41:18;;;;;;;9.30;4.80;;;;;19.50;101015.00;;;;5024069;28;20357;-65
2023/08/14 07:44:05;;;;;;;10.53;5.23;;;;;19.60;101004.00;;;;5016370;28;20225;-64
2023/08/14 07:46:51;;;;;;;8.67;5.03;;;;;19.60;100995.00;;;;5023220;28;20242;-66
2023/08/14 07:49:37;;;;;;;10.90;6.40;;;;;19.60;100999.00;;;;5023368;28;20659;-65
2023/08/14 07:52:27;;;;;;;11.97;6.20;;;;;19.70;101010.00;;;;5030059;28;20241;-65
2023/08/14 07:55:13;;;;;;;10.07;6.60;;;;;19.80;101002.00;;;;5030147;28;20296;-65
2023/08/14 07:58:00;;;;;;;14.13;6.67;;;;;19.70;101000.00;;;;5039611;28;20232;-64
2023/08/14 08:00:46;;;;;;;11.27;6.40;;;;;19.80;101009.00;;;;5032909;28;20319;-65
2023/08/14 08:03:33;;;;;;;14.90;6.53;;;;;19.80;101005.00;;;;5025991;28;20238;-65
2023/08/14 08:06:19;;;;;;;9.93;5.93;;;;;19.80;101001.00;;;;5027545;28;20608;-66
2023/08/14 08:09:07;;;;;;;10.37;6.20;;;;;19.80;100989.00;;;;5032334;28;20236;-65
2023/08/14 08:11:53;;;;;;;10.87;5.80;;;;;19.90;100992.00;;;;5026658;28;20724;-65
2023/08/14 08:14:41;;;;;;;15.40;5.43;;;;;19.90;100990.00;;;;5023376;28;20231;-65
2023/08/14 08:17:27;;;;;;;8.50;6.10;;;;;19.90;101001.00;;;;5043986;28;20234;-66
2023/08/14 08:20:14;;;;;;;10.63;6.23;;;;;19.90;100997.00;;;;5022677;28;20285;-65
2023/08/14 08:23:00;;;;;;;14.20;6.40;;;;;20.10;100997.00;;;;5064873;28;20338;-65
2023/08/14 08:25:48;;;;;;;14.57;6.50;;;;;20.10;100994.00;;;;5046431;28;20262;-65
2023/08/14 08:28:34;;;;;;;12.97;6.60;;;;;20.20;100983.00;;;;5057326;28;20233;-67
2023/08/14 08:31:21;;;;;;;13.83;6.60;;;;;20.40;100988.00;;;;5028168;28;20318;-65
2023/08/14 08:34:07;;;;;;;13.27;6.03;;;;;20.50;100986.00;;;;5030357;28;20225;-65
2023/08/14 08:36:54;;;;;;;9.10;6.00;;;;;20.60;100992.00;;;;5029967;28;20236;-64
2023/08/14 08:39:40;;;;;;;11.03;5.93;;;;;20.70;100989.00;;;;5027130;28;20777;-66
2023/08/14 08:42:28;;;;;;;11.13;5.27;;;;;20.90;100981.00;;;;5031800;28;20375;-65
2023/08/14 08:45:17;;;;;;;11.67;5.57;;;;;21.10;100973.00;;;;5018798;28;20609;-65
2023/08/14 08:48:07;;;;;;;9.80;4.77;;;;;21.30;100970.00;;;;5023496;28;20232;-66
2023/08/14 08:50:54;;;;;;;6.93;4.13;;;;;21.50;100984.00;;;;5034854;28;20904;-65
2023/08/14 08:53:41;;;;;;;11.43;5.00;;;;;21.70;100985.00;;;;5032395;28;20392;-66
2023/08/14 08:56:28;;;;;;;8.60;4.23;;;;;21.90;100982.00;;;;5025903;28;20309;-65
2023/08/14 08:59:16;;;;;;;8.63;3.70;;;;;22.10;100979.00;;;;5026697;28;20392;-65
2023/08/14 09:02:02;;;;;;;11.73;4.37;;;;;22.10;100977.00;;;;5029300;28;20393;-65
2023/08/14 09:04:49;;;;;;;10.50;3.80;;;;;22.30;100982.00;;;;5021245;28;20228;-66
2023/08/14 09:07:35;;;;;;;6.23;3.23;;;;;22.50;100992.00;;;;5034600;28;20229;-66
2023/08/14 09:10:21;;;;;;;8.17;4.03;;;;;22.60;100998.00;;;;5030614;28;20237;-65
2023/08/14 09:13:08;;;;;;;5.03;2.90;;;;;22.70;101003.00;;;;5038740;28;20221;-66
2023/08/14 09:15:56;;;;;;;5.80;3.00;;;;;22.80;101005.00;;;;5036032;28;20283;-65
2023/08/14 09:18:43;;;;;;;8.53;2.40;;;;;22.90;101003.00;;;;5027243;28;20233;-65
2023/08/14 09:21:30;;;;;;;6.80;3.00;;;;;23.10;100994.00;;;;5002849;28;20265;-65
2023/08/14 09:24:16;;;;;;;4.60;2.23;;;;;23.20;100983.00;;;;5025230;28;20252;-67
2023/08/14 09:27:03;;;;;;;4.63;2.90;;;;;23.40;100982.00;;;;5022201;28;20476;-66
2023/08/14 09:29:53;;;;;;;13.27;2.67;;;;;23.50;100988.00;;;;5025912;28;20298;-66
2023/08/14 09:32:41;;;;;;;6.30;2.43;;;;;23.60;100985.00;;;;5036811;28;20801;-66
2023/08/14 09:35:28;;;;;;;4.03;2.70;;;;;23.70;100986.00;;;;5022189;28;20221;-66
2023/08/14 09:38:15;;;;;;;6.80;2.23;;;;;23.80;100982.00;;;;5018804;28;20984;-66
2023/08/14 09:41:02;;;;;;;4.07;2.27;;;;;23.90;100977.00;;;;5024316;28;20281;-66
2023/08/14 09:43:48;;;;;;;6.97;2.43;;;;;24.10;100982.00;;;;5023169;28;20222;-66
2023/08/14 09:46:35;;;;;;;4.83;2.67;;;;;24.20;100974.00;;;;5028135;28;20229;-65
2023/08/14 09:49:23;;;;;;;6.47;2.70;;;;;24.30;100973.00;;;;5025705;28;20741;-67
2023/08/14 09:52:11;;;;;;;5.93;2.70;;;;;24.40;100969.00;;;;4964715;28;1526895;-66
2023/08/14 09:55:00;;;;;;;6.43;3.00;;;;;24.50;100960.00;;;;5034630;28;20237;-67
2023/08/14 09:57:56;;;;;;;5.57;2.78;;;;;24.40;100961.00;;;;5031826;28;20220;-67
2023/08/14 10:00:43;;;;;;;10.63;3.00;;;;;24.40;100955.00;;;;5043425;28;20350;-66
2023/08/14 10:03:31;;;;;;;5.88;2.50;;;;;24.60;100953.00;;;;5039904;28;20859;-67
2023/08/14 10:06:20;;;;;;;6.60;3.00;;;;;24.70;100953.00;;;;5057668;28;20730;-65
2023/08/14 10:09:06;;;;;;;6.78;2.60;;;;;24.80;100937.00;;;;5050170;28;20328;-67
2023/08/14 10:11:56;;;;;;;6.85;2.70;;;;;24.60;100946.00;;;;5040109;28;20815;-67
2023/08/14 10:14:47;;;;;;;6.50;2.70;;;;;24.50;100939.00;;;;5039624;28;20749;-67
2023/08/14 10:17:37;;;;;;;5.97;2.55;;;;;24.80;100940.00;;;;5040461;28;20872;-66
2023/08/14 10:20:25;;;;;;;7.22;3.00;;;;;25.00;100926.00;;;;5043351;28;20236;-66
2023/08/14 10:23:14;;;;;;;5.47;2.40;;;;;25.10;100933.00;;;;5024789;28;20236;-66
2023/08/14 10:26:01;;;;;;;3.92;2.00;;;;;25.10;100939.00;;;;5043855;28;20276;-67
2023/08/14 10:28:48;;;;;;;5.45;2.25;;;;;25.10;100933.00;;;;5035771;28;20717;-67
2023/08/14 10:31:35;;;;;;;5.70;2.25;;;;;25.20;100921.00;;;;5045768;28;20237;-67
2023/08/14 10:34:23;;;;;;;5.47;2.40;;;;;25.50;100935.00;;;;5037644;28;20228;-67
2023/08/14 10:37:25;;;;;;;6.70;2.38;;;;;25.70;100934.00;;;;5042609;28;20243;-64
2023/08/14 10:40:18;;;;;;;5.38;2.00;;;;;25.70;100935.00;;;;5045101;28;20627;-67
2023/08/14 10:43:05;;;;;;;2.70;1.85;;;;;25.90;100934.00;;;;5042009;28;20229;-68
2023/08/14 10:45:52;;;;;;;6.95;2.05;;;;;26.00;100923.00;;;;5036622;28;20278;-67
2023/08/14 10:48:39;;;;;;;6.47;2.40;;;;;26.10;100935.00;;;;5050559;28;20244;-67
2023/08/14 10:51:31;;;;;;;9.50;2.90;;;;;26.30;100938.00;;;;5041564;28;20224;-66
2023/08/14 10:54:17;;;;;;;4.72;2.50;;;;;26.30;100941.00;;;;5045288;28;20267;-65
2023/08/14 10:57:10;;;;;;;5.82;2.53;;;;;26.40;100947.00;;;;5044892;28;20598;-65
2023/08/14 10:59:58;;;;;;;6.32;2.65;;;;;26.50;100937.00;;;;5043221;28;20248;-65
2023/08/14 11:02:50;;;;;;;6.30;2.80;;;;;26.60;100937.00;;;;5034886;28;20291;-65
2023/08/14 11:05:38;;;;;;;6.95;2.53;;;;;26.70;100943.00;;;;5041917;28;20263;-65
2023/08/14 11:08:24;;;;;;;6.70;2.85;;;;;26.70;100937.00;;;;5044660;28;20228;-65
2023/08/14 11:11:11;;;;;;;4.78;2.60;;;;;26.60;100939.00;;;;5044556;28;20228;-66
2023/08/14 11:13:59;;;;;;;4.82;2.60;;;;;26.70;100935.00;;;;5045008;28;20228;-66
2023/08/14 11:16:49;;;;;;;4.60;2.45;;;;;26.40;100940.00;;;;5040871;28;20298;-66
2023/08/14 11:19:36;;;;;;;6.55;2.55;;;;;26.40;100937.00;;;;5040957;28;20235;-69
2023/08/14 11:22:23;;;;;;;5.97;2.35;;;;;26.50;100934.00;;;;5032732;28;20240;-65
2023/08/14 11:25:10;;;;;;;6.43;2.25;;;;;26.80;100935.00;;;;5032328;28;20726;-65
2023/08/14 11:27:56;;;;;;;6.15;2.53;;;;;27.00;100933.00;;;;5022660;28;20229;-67
2023/08/14 11:30:44;;;;;;;6.07;2.70;;;;;27.10;100936.00;;;;5018868;28;20867;-66
2023/08/14 11:33:31;;;;;;;3.47;2.17;;;;;27.10;100928.00;;;;5024793;28;20263;-65
2023/08/14 11:36:17;;;;;;;4.05;2.35;;;;;27.10;100924.00;;;;5019110;28;20237;-66
2023/08/14 11:39:04;;;;;;;3.90;2.28;;;;;27.10;100928.00;;;;5015745;28;20331;-67
2023/08/14 11:41:51;;;;;;;6.28;2.50;;;;;27.30;100934.00;;;;5017617;28;20640;-65
2023/08/14 11:44:37;;;;;;;3.40;2.03;;;;;27.30;100921.00;;;;5022085;28;20324;-65
2023/08/14 11:47:25;;;;;;;5.82;2.17;;;;;27.50;100928.00;;;;5015900;28;20229;-67
2023/08/14 11:50:12;;;;;;;5.40;2.25;;;;;27.40;100935.00;;;;5040744;28;20605;-67
2023/08/14 11:52:59;;;;;;;3.75;2.03;;;;;27.70;100924.00;;;;5039768;28;21722;-66
2023/08/14 11:55:46;;;;;;;5.53;2.60;;;;;27.80;100923.00;;;;5033788;28;20230;-67
2023/08/14 11:58:32;;;;;;;4.07;2.20;;;;;27.70;100922.00;;;;5024658;28;20280;-67
2023/08/14 12:01:20;;;;;;;3.88;2.38;;;;;27.80;100920.00;;;;5028732;28;20713;-66
2023/08/14 12:04:08;;;;;;;5.93;2.35;;;;;28.00;100923.00;;;;5024509;28;20280;-66
2023/08/14 12:06:55;;;;;;;6.68;2.30;;;;;28.00;100923.00;;;;5019555;28;20308;-67
2023/08/14 12:09:41;;;;;;;5.38;2.03;;;;;28.20;100922.00;;;;5024710;28;20697;-65
2023/08/14 12:12:29;;;;;;;5.47;2.42;;;;;28.30;100921.00;;;;5027015;28;20232;-65
2023/08/14 12:15:20;;;;;;;5.05;2.30;;;;;28.30;100918.00;;;;5023900;28;20312;-67
2023/08/14 12:18:12;;;;;;;7.80;2.50;;;;;28.30;100919.00;;;;5020022;28;20362;-66
2023/08/14 12:21:03;;;;;;;8.55;2.35;;;;;28.30;100925.00;;;;5020822;28;20293;-67
2023/08/14 12:23:54;;;;;;;5.43;2.63;;;;;28.30;100928.00;;;;5039355;28;20592;-67
2023/08/14 12:26:44;;;;;;;6.60;2.38;;;;;28.40;100932.00;;;;5034085;28;21059;-66
2023/08/14 12:29:30;;;;;;;5.07;2.40;;;;;28.50;100933.00;;;;5018730;28;20298;-67
2023/08/14 12:32:17;;;;;;;5.70;2.47;;;;;28.70;100931.00;;;;5015795;28;20307;-66
2023/08/14 12:35:05;;;;;;;5.85;3.00;;;;;28.60;100922.00;;;;5023675;28;20272;-67
2023/08/14 12:37:55;;;;;;;6.40;2.58;;;;;28.90;100925.00;;;;5015084;28;20237;-68
2023/08/14 12:40:41;;;;;;;3.63;2.33;;;;;29.20;100909.00;;;;5023694;28;20232;-67
2023/08/14 12:43:28;;;;;;;6.30;2.22;;;;;29.20;100917.00;;;;5020437;28;20308;-67
2023/08/14 12:46:25;;;;;;;4.88;2.45;;;;;29.30;100910.00;;;;5024678;28;20307;-68
2023/08/14 12:49:12;;;;;;;3.35;2.30;;;;;29.30;100906.00;;;;5024267;28;20343;-68
2023/08/14 12:51:59;;;;;;;6.03;2.58;;;;;29.50;100909.00;;;;5031390;28;20237;-65
2023/08/14 12:54:47;;;;;;;6.10;2.20;;;;;29.60;100907.00;;;;5023020;28;20248;-66
2023/08/14 12:57:34;;;;;;;4.70;1.98;;;;;29.70;100898.00;;;;5023904;28;20229;-67
2023/08/14 13:00:21;;;;;;;5.95;2.30;;;;;29.70;100888.00;;;;5027414;28;20698;-69
2023/08/14 13:03:08;;;;;;;5.22;2.17;;;;;29.70;100886.00;;;;5025970;28;20312;-68
2023/08/14 13:05:55;;;;;;;7.10;2.28;;;;;29.80;100887.00;;;;5026097;28;20765;-68
2023/08/14 13:08:41;;;;;;;7.88;2.33;;;;;29.80;100879.00;;;;5022321;28;20612;-68
2023/08/14 13:11:29;;;;;;;4.75;2.00;;;;;30.00;100887.00;;;;5019984;28;20719;-69
2023/08/14 13:14:16;;;;;;;4.13;2.35;;;;;30.00;100868.00;;;;5023733;28;20225;-68
2023/08/14 13:17:02;;;;;;;7.20;2.50;;;;;30.00;100865.00;;;;5016898;28;20322;-66
2023/08/14 13:19:49;;;;;;;2.28;2.00;;;;;30.10;100856.00;;;;5024837;28;20732;-69
2023/08/14 13:22:35;;;;;;;4.28;2.50;;;;;30.00;100853.00;;;;5038500;28;20372;-69
2023/08/14 13:25:21;;;;;;;5.97;2.60;;;;;29.80;100845.00;;;;5031623;28;20245;-68
2023/08/14 13:28:09;;;;;;;3.22;2.20;;;;;30.00;100831.00;;;;5029443;28;20229;-69
2023/08/14 13:30:56;;;;;;;6.32;2.30;;;;;29.80;100835.00;;;;5026128;28;20708;-65
2023/08/14 13:33:42;;;;;;;5.95;2.40;;;;;29.40;100830.00;;;;5031251;28;20288;-68
2023/08/14 13:36:29;;;;;;;5.18;2.30;;;;;29.60;100817.00;;;;5025251;28;20233;-66
2023/08/14 13:39:16;;;;;;;5.70;2.38;;;;;29.90;100829.00;;;;5026570;28;20232;-66
2023/08/14 13:42:02;;;;;;;4.30;2.28;;;;;30.00;100811.00;;;;5021996;28;20229;-67
2023/08/14 13:44:52;;;;;;;5.45;2.28;;;;;30.00;100818.00;;;;5020443;28;20233;-66